This is the latest recevied weather packets stored in our database for station/object LU9FW-5. If no packets are shown the sender has not sent any weather packets the latest 10 day(s).
| Time | Temp. | Humidity | Pressure | Rain* | Wind** | Luminosity | Snow |
|---|---|---|---|---|---|---|---|
| 1777387428 | 20° C | 49% | 1012 hPa | 0 mm | - | - | - |
| 1777387359 | 19.44° C | 50% | 1012.1 hPa | 0 mm | - | - | - |
| 1777387296 | 19.44° C | 50% | 1011.9 hPa | 0 mm | - | - | - |
| 1777387224 | 19.44° C | 51% | 1011.8 hPa | 0 mm | - | - | - |
| 1777387147 | 19.44° C | 49% | 1011.8 hPa | 0 mm | - | - | - |
| 1777387078 | 19.44° C | 47% | 1011.9 hPa | 0 mm | - | - | - |
| 1777387007 | 19.44° C | 52% | 1011.7 hPa | 0 mm | - | - | - |
| 1777386937 | 19.44° C | 49% | 1012 hPa | 0 mm | - | - | - |
| 1777386868 | 19.44° C | 50% | 1012 hPa | 0 mm | - | - | - |
| 1777386796 | 19.44° C | 51% | 1011.9 hPa | 0 mm | - | - | - |
| 1777386718 | 19.44° C | 51% | 1012 hPa | 0 mm | - | - | - |
| 1777386655 | 19.44° C | 51% | 1011.7 hPa | 0 mm | - | - | - |
| 1777386583 | 19.44° C | 52% | 1011.7 hPa | 0 mm | - | - | - |
| 1777386515 | 19.44° C | 50% | 1011.8 hPa | 0 mm | - | - | - |
| 1777386470 | 19.44° C | 51% | 1011.7 hPa | 0 mm | - | - | - |
| 1777386443 | 19.44° C | 51% | 1012 hPa | 0 mm | - | - | - |
| 1777386301 | 18.89° C | 53% | 1012 hPa | 0 mm | - | - | - |
| 1777386232 | 18.89° C | 54% | 1011.8 hPa | 0 mm | - | - | - |
| 1777386153 | 18.89° C | 53% | 1011.8 hPa | 0 mm | - | - | - |
| 1777386091 | 18.89° C | 52% | 1012 hPa | 0 mm | - | - | - |
| 1777386029 | 18.33° C | 53% | 1011.9 hPa | 0 mm | - | - | - |
| 1777385950 | 18.33° C | 52% | 1012 hPa | 0 mm | - | - | - |
| 1777385871 | 18.33° C | 53% | 1011.9 hPa | 0 mm | - | - | - |
| 1777385807 | 18.33° C | 54% | 1011.8 hPa | 0 mm | - | - | - |
| 1777385746 | 18.33° C | 54% | 1011.8 hPa | 0 mm | - | - | - |
* Rain latest hour (hover to see other rain measurements)
** Current wind speed in m/s (hover to see current wind gust speed)